createdAt,value
2018-01-14T00:00:56.057Z,16.87
2018-01-14T00:03:23.083Z,16.17
2018-01-14T00:05:49.975Z,17.50
2018-01-14T00:08:16.261Z,16.87
2018-01-14T00:10:42.553Z,16.30
2018-01-14T00:13:09.297Z,18.10
2018-01-14T00:15:35.571Z,17.00
2018-01-14T00:18:02.609Z,16.27
2018-01-14T00:20:29.581Z,15.70
2018-01-14T00:22:56.616Z,17.50
2018-01-14T00:25:23.634Z,17.10
2018-01-14T00:27:50.021Z,15.70
2018-01-14T00:30:16.272Z,17.00
2018-01-14T00:32:42.544Z,17.47
2018-01-14T00:35:09.547Z,17.57
2018-01-14T00:37:35.823Z,16.77
2018-01-14T00:40:02.866Z,17.90
2018-01-14T00:42:29.159Z,16.63
2018-01-14T00:44:55.441Z,16.73
2018-01-14T00:47:22.481Z,17.07
2018-01-14T00:49:49.540Z,17.33
2018-01-14T00:52:16.535Z,18.80
2018-01-14T00:54:42.841Z,17.03
2018-01-14T00:57:09.098Z,17.87
2018-01-14T00:59:35.345Z,18.63
2018-01-14T01:02:01.727Z,17.73
2018-01-14T01:04:27.970Z,16.67
2018-01-14T01:06:54.230Z,15.90
2018-01-14T01:09:20.513Z,16.30
2018-01-14T01:11:46.803Z,17.40
2018-01-14T01:14:13.795Z,14.90
2018-01-14T01:16:40.065Z,18.47
2018-01-14T01:19:07.034Z,16.50
2018-01-14T01:21:33.327Z,16.10
2018-01-14T01:23:59.641Z,17.30
2018-01-14T01:26:25.892Z,16.57
2018-01-14T01:28:52.190Z,16.23
2018-01-14T01:31:18.563Z,16.00
2018-01-14T01:33:45.590Z,15.07
2018-01-14T01:36:11.868Z,17.13
2018-01-14T01:38:38.170Z,16.07
2018-01-14T01:41:05.166Z,15.97
2018-01-14T01:43:31.434Z,14.63
2018-01-14T01:45:57.698Z,16.87
2018-01-14T01:48:23.974Z,16.17
2018-01-14T01:50:50.312Z,16.63
2018-01-14T01:53:16.581Z,15.50
2018-01-14T01:55:42.875Z,15.70
2018-01-14T01:58:09.140Z,15.60
2018-01-14T02:00:35.411Z,14.83
2018-01-14T02:03:01.670Z,15.17
2018-01-14T02:05:28.661Z,17.43
2018-01-14T02:07:54.966Z,16.77
2018-01-14T02:10:22.035Z,17.00
2018-01-14T02:12:48.256Z,15.43
2018-01-14T02:15:14.529Z,15.80
2018-01-14T02:17:40.748Z,15.83
2018-01-14T02:20:07.022Z,16.37
2018-01-14T02:22:34.044Z,15.70
2018-01-14T02:25:00.424Z,16.10
2018-01-14T02:27:26.696Z,15.40
2018-01-14T02:29:52.934Z,16.90
2018-01-14T02:32:19.204Z,15.13
2018-01-14T02:34:45.525Z,16.70
2018-01-14T02:37:11.784Z,16.00
2018-01-14T02:39:38.052Z,15.03
2018-01-14T02:42:04.351Z,15.90
2018-01-14T02:44:30.607Z,16.00
2018-01-14T02:46:56.901Z,15.60
2018-01-14T02:49:23.159Z,14.30
2018-01-14T02:51:49.450Z,16.83
2018-01-14T02:54:15.828Z,16.23
2018-01-14T02:56:42.128Z,15.03
2018-01-14T02:59:08.443Z,15.20
2018-01-14T03:01:34.728Z,15.80
2018-01-14T03:04:01.728Z,14.30
2018-01-14T03:06:27.993Z,14.40
2018-01-14T03:08:54.253Z,14.57
2018-01-14T03:11:20.560Z,13.60
2018-01-14T03:13:47.576Z,15.37
2018-01-14T03:16:13.846Z,14.43
2018-01-14T03:18:40.850Z,15.03
2018-01-14T03:21:14.044Z,14.80
2018-01-14T03:23:40.301Z,15.30
2018-01-14T03:26:07.313Z,15.33
2018-01-14T03:28:33.581Z,14.67
2018-01-14T03:30:59.868Z,14.17
2018-01-14T03:33:26.132Z,14.37
2018-01-14T03:35:52.364Z,16.20
2018-01-14T03:38:19.393Z,15.53
2018-01-14T03:40:45.783Z,15.37
2018-01-14T03:43:12.110Z,14.50
2018-01-14T03:45:38.584Z,15.00
2018-01-14T03:48:04.859Z,15.23
2018-01-14T03:50:31.117Z,16.00
2018-01-14T03:52:57.372Z,15.07
2018-01-14T03:55:23.705Z,14.10
2018-01-14T03:57:50.034Z,14.50
2018-01-14T04:00:17.091Z,15.20
2018-01-14T04:02:44.069Z,15.20
2018-01-14T04:05:10.325Z,14.60
2018-01-14T04:07:36.590Z,15.63
2018-01-14T04:10:02.841Z,14.00
2018-01-14T04:12:29.073Z,14.30
2018-01-14T04:14:56.102Z,15.17
2018-01-14T04:17:23.096Z,14.03
2018-01-14T04:19:49.388Z,13.87
2018-01-14T04:22:16.403Z,15.80
2018-01-14T04:24:42.738Z,16.17
2018-01-14T04:27:08.970Z,15.57
2018-01-14T04:29:35.235Z,15.10
2018-01-14T04:32:01.507Z,15.97
2018-01-14T04:34:27.782Z,14.40
2018-01-14T04:36:54.779Z,15.47
2018-01-14T04:39:21.108Z,14.60
2018-01-14T04:41:47.410Z,14.60
2018-01-14T04:44:13.657Z,15.67
2018-01-14T04:46:39.932Z,15.57
2018-01-14T04:49:06.907Z,16.63
2018-01-14T04:51:33.205Z,14.50
2018-01-14T04:54:00.178Z,15.33
2018-01-14T04:56:26.470Z,15.10
2018-01-14T04:58:53.482Z,15.60
2018-01-14T05:01:19.736Z,15.90
2018-01-14T05:03:45.968Z,16.07
2018-01-14T05:06:12.274Z,15.67
2018-01-14T05:08:38.521Z,15.63
2018-01-14T05:11:05.541Z,16.40
2018-01-14T05:13:31.797Z,16.43
2018-01-14T05:16:05.847Z,16.03
2018-01-14T05:18:32.113Z,15.90
2018-01-14T05:20:58.374Z,16.97
2018-01-14T05:23:24.652Z,15.90
2018-01-14T05:25:51.061Z,15.77
2018-01-14T05:28:17.315Z,15.93
2018-01-14T05:30:43.539Z,16.87
2018-01-14T05:33:09.789Z,14.93
2018-01-14T05:35:36.042Z,16.50
2018-01-14T05:38:09.263Z,16.63
2018-01-14T05:40:35.521Z,16.87
2018-01-14T05:43:01.781Z,16.20
2018-01-14T05:45:28.830Z,16.63
2018-01-14T05:47:55.069Z,17.47
2018-01-14T05:50:21.312Z,16.27
2018-01-14T05:52:48.292Z,18.00
2018-01-14T05:55:15.650Z,17.67
2018-01-14T05:57:41.912Z,17.13
2018-01-14T06:00:08.174Z,16.87
2018-01-14T06:02:35.164Z,17.67
2018-01-14T06:05:01.450Z,17.60
2018-01-14T06:07:27.868Z,18.30
2018-01-14T06:09:54.857Z,18.63
2018-01-14T06:12:21.124Z,18.57
2018-01-14T06:14:48.115Z,18.20
2018-01-14T06:17:14.373Z,16.50
2018-01-14T06:19:40.596Z,17.33
2018-01-14T06:22:06.854Z,16.23
2018-01-14T06:24:33.133Z,17.10
2018-01-14T06:26:59.358Z,16.67
2018-01-14T06:29:25.645Z,18.30
2018-01-14T06:31:51.896Z,17.27
2018-01-14T06:34:18.888Z,18.00
2018-01-14T06:36:45.148Z,18.20
2018-01-14T06:39:12.198Z,18.17
2018-01-14T06:41:38.452Z,15.10
2018-01-14T06:44:04.731Z,17.30
2018-01-14T06:46:31.024Z,17.23
2018-01-14T06:48:57.252Z,19.17
2018-01-14T06:51:23.538Z,17.90
2018-01-14T06:53:50.535Z,19.00
2018-01-14T06:56:16.823Z,18.63
2018-01-14T06:58:43.801Z,17.60
2018-01-14T07:01:10.065Z,17.60
2018-01-14T07:03:36.360Z,19.43
2018-01-14T07:06:02.623Z,17.50
2018-01-14T07:08:35.818Z,18.97
2018-01-14T07:11:02.111Z,18.90
2018-01-14T07:13:28.390Z,18.70
2018-01-14T07:15:54.771Z,19.20
2018-01-14T07:18:21.083Z,18.80
2018-01-14T07:20:48.216Z,18.73
2018-01-14T07:23:14.522Z,19.47
2018-01-14T07:25:40.863Z,19.33
2018-01-14T07:28:07.260Z,17.43
2018-01-14T07:30:33.662Z,18.20
2018-01-14T07:32:59.971Z,18.37
2018-01-14T07:35:26.989Z,19.77
2018-01-14T07:37:54.578Z,20.63
2018-01-14T07:40:21.561Z,18.70
2018-01-14T07:42:47.828Z,18.87
2018-01-14T07:45:14.103Z,18.87
2018-01-14T07:47:40.393Z,19.40
2018-01-14T07:50:06.690Z,18.83
2018-01-14T07:52:32.960Z,17.97
2018-01-14T07:54:59.964Z,19.67
2018-01-14T07:57:26.223Z,18.87
2018-01-14T07:59:52.484Z,18.93
2018-01-14T08:02:18.710Z,19.97
2018-01-14T08:04:45.706Z,19.10
2018-01-14T08:07:12.065Z,19.23
2018-01-14T08:09:39.204Z,18.37
2018-01-14T08:12:05.454Z,18.67
2018-01-14T08:14:32.515Z,19.40
2018-01-14T08:16:58.758Z,19.07
2018-01-14T08:19:26.532Z,19.93
2018-01-14T08:21:52.799Z,17.40
2018-01-14T08:24:19.059Z,20.10
2018-01-14T08:26:45.571Z,19.33
2018-01-14T08:29:11.866Z,20.30
2018-01-14T08:31:38.905Z,18.50
2018-01-14T08:34:05.154Z,18.70
2018-01-14T08:36:31.414Z,19.40
2018-01-14T08:38:58.388Z,18.50
2018-01-14T08:41:24.847Z,19.53
2018-01-14T08:43:51.214Z,18.47
2018-01-14T08:46:18.256Z,18.83
2018-01-14T08:48:45.253Z,17.83
2018-01-14T08:51:11.513Z,18.47
2018-01-14T08:53:37.756Z,17.20
2018-01-14T08:56:04.862Z,19.33
2018-01-14T08:58:31.186Z,18.63
2018-01-14T09:00:58.295Z,17.73
2018-01-14T09:03:25.396Z,17.70
2018-01-14T09:05:51.707Z,18.50
2018-01-14T09:08:18.018Z,18.57
2018-01-14T09:10:45.030Z,18.53
2018-01-14T09:13:18.887Z,21.67
2018-01-14T09:15:45.196Z,19.10
2018-01-14T09:18:11.518Z,18.60
2018-01-14T09:20:37.900Z,19.53
2018-01-14T09:23:05.413Z,18.13
2018-01-14T09:25:32.030Z,17.40
2018-01-14T09:27:59.141Z,16.33
2018-01-14T09:30:37.705Z,17.37
2018-01-14T09:33:04.145Z,17.00
2018-01-14T09:35:30.553Z,16.20
2018-01-14T09:38:04.209Z,16.53
2018-01-14T09:40:31.351Z,16.07
2018-01-14T09:42:57.819Z,17.53
2018-01-14T09:45:24.069Z,16.80
2018-01-14T09:47:50.345Z,16.07
2018-01-14T09:50:16.728Z,16.50
2018-01-14T09:52:42.994Z,16.97
2018-01-14T09:55:09.742Z,16.37
2018-01-14T09:57:36.159Z,13.97
2018-01-14T10:00:02.694Z,15.90
2018-01-14T10:02:29.787Z,14.87
2018-01-14T10:04:56.078Z,15.70
2018-01-14T10:07:24.041Z,16.60
2018-01-14T10:09:50.377Z,15.47
2018-01-14T10:12:16.947Z,14.37
2018-01-14T10:14:44.327Z,13.90
2018-01-14T10:17:10.594Z,15.93
2018-01-14T10:19:39.945Z,15.53
2018-01-14T10:22:07.474Z,15.13
2018-01-14T10:24:33.901Z,13.50
2018-01-14T10:27:00.163Z,14.93
2018-01-14T10:29:26.410Z,14.50
2018-01-14T10:31:52.684Z,15.40
2018-01-14T10:34:18.973Z,13.57
2018-01-14T10:36:46.007Z,13.70
2018-01-14T10:39:12.758Z,13.90
2018-01-14T10:41:39.073Z,13.57
2018-01-14T10:44:05.352Z,13.23
2018-01-14T10:46:31.649Z,14.63
2018-01-14T10:48:58.664Z,12.80
2018-01-14T10:51:24.984Z,14.30
2018-01-14T10:53:51.607Z,14.30
2018-01-14T10:56:23.027Z,13.20
2018-01-14T10:58:51.278Z,13.40
2018-01-14T11:01:24.885Z,15.33
2018-01-14T11:03:51.364Z,13.73
2018-01-14T11:06:19.762Z,13.50
2018-01-14T11:08:46.825Z,12.80
2018-01-14T11:11:15.081Z,13.83
2018-01-14T11:13:41.352Z,14.00
2018-01-14T11:16:07.748Z,15.07
2018-01-14T11:18:34.876Z,13.33
2018-01-14T11:21:01.246Z,14.30
2018-01-14T11:23:27.605Z,14.00
2018-01-14T11:25:54.635Z,15.37
2018-01-14T11:28:24.032Z,13.53
2018-01-14T11:30:50.340Z,13.03
2018-01-14T11:33:18.148Z,12.67
2018-01-14T11:35:44.438Z,14.03
2018-01-14T11:38:10.861Z,14.30
2018-01-14T11:40:37.126Z,13.23
2018-01-14T11:43:04.248Z,14.03
2018-01-14T11:45:30.503Z,14.93
2018-01-14T11:47:56.761Z,15.17
2018-01-14T11:50:23.146Z,15.30
2018-01-14T11:52:49.703Z,14.17
2018-01-14T11:55:16.706Z,15.87
2018-01-14T11:57:42.936Z,15.70
2018-01-14T12:00:09.250Z,15.57
2018-01-14T12:02:35.649Z,14.30
2018-01-14T12:05:02.666Z,14.83
2018-01-14T12:07:29.437Z,13.80
2018-01-14T12:09:55.759Z,14.97
2018-01-14T12:12:22.223Z,14.47
2018-01-14T12:14:48.600Z,14.43
2018-01-14T12:17:14.873Z,13.30
2018-01-14T12:19:41.300Z,14.10
2018-01-14T12:22:07.833Z,14.93
2018-01-14T12:24:34.154Z,16.00
2018-01-14T12:27:01.167Z,16.10
2018-01-14T12:29:27.586Z,16.27
2018-01-14T12:31:54.131Z,17.20
2018-01-14T12:34:38.421Z,15.00
2018-01-14T12:37:04.990Z,14.20
2018-01-14T12:39:31.287Z,15.37
2018-01-14T12:41:58.383Z,14.33
2018-01-14T12:44:24.673Z,14.27
2018-01-14T12:46:51.041Z,15.57
2018-01-14T12:49:17.529Z,14.60
2018-01-14T12:51:43.967Z,14.00
2018-01-14T12:54:10.380Z,14.80
2018-01-14T12:56:37.858Z,15.07
2018-01-14T12:59:05.015Z,16.63
2018-01-14T13:01:32.088Z,15.23
2018-01-14T13:03:58.513Z,15.90
2018-01-14T13:06:24.851Z,14.90
2018-01-14T13:08:51.975Z,16.57
2018-01-14T13:11:18.379Z,14.40
2018-01-14T13:13:45.432Z,15.23
2018-01-14T13:16:11.834Z,15.20
2018-01-14T13:18:38.190Z,14.10
2018-01-14T13:21:06.285Z,14.90
2018-01-14T13:23:32.614Z,15.93
2018-01-14T13:25:58.999Z,14.43
2018-01-14T13:28:25.444Z,14.90
2018-01-14T13:30:51.871Z,14.10
2018-01-14T13:33:18.243Z,13.93
2018-01-14T13:35:45.261Z,15.00
2018-01-14T13:38:12.336Z,14.93
2018-01-14T13:40:39.586Z,14.80
2018-01-14T13:43:05.865Z,15.20
2018-01-14T13:45:33.056Z,13.57
2018-01-14T13:47:59.334Z,13.73
2018-01-14T13:50:25.583Z,15.13
2018-01-14T13:52:52.666Z,14.80
2018-01-14T13:55:18.976Z,15.37
2018-01-14T13:57:46.230Z,14.33
2018-01-14T14:00:12.561Z,15.70
2018-01-14T14:02:39.625Z,14.00
2018-01-14T14:05:05.958Z,14.57
2018-01-14T14:07:32.474Z,14.33
2018-01-14T14:09:59.582Z,15.30
2018-01-14T14:12:25.882Z,13.50
2018-01-14T14:14:52.195Z,13.77
2018-01-14T14:17:18.468Z,13.80
2018-01-14T14:19:44.996Z,15.40
2018-01-14T14:22:11.389Z,14.57
2018-01-14T14:24:38.618Z,15.13
2018-01-14T14:27:04.950Z,13.80
2018-01-14T14:29:31.394Z,15.20
2018-01-14T14:31:58.505Z,15.67
2018-01-14T14:34:24.870Z,15.33
2018-01-14T14:36:52.586Z,14.50
2018-01-14T14:39:18.879Z,15.13
2018-01-14T14:41:45.238Z,15.73
2018-01-14T14:44:11.487Z,15.70
2018-01-14T14:46:37.798Z,15.80
2018-01-14T14:49:04.075Z,15.57
2018-01-14T14:51:31.203Z,15.87
2018-01-14T14:53:57.531Z,16.50
2018-01-14T14:56:23.847Z,16.40
2018-01-14T14:58:50.178Z,15.83
2018-01-14T15:01:17.314Z,15.43
2018-01-14T15:03:43.654Z,15.60
2018-01-14T15:06:09.964Z,15.67
2018-01-14T15:08:36.295Z,15.50
2018-01-14T15:11:02.563Z,16.60
2018-01-14T15:13:28.868Z,15.63
2018-01-14T15:15:55.153Z,16.53
2018-01-14T15:18:21.434Z,15.80
2018-01-14T15:20:47.713Z,16.07
2018-01-14T15:23:14.730Z,16.97
2018-01-14T15:25:41.221Z,17.70
2018-01-14T15:30:44.682Z,16.27
2018-01-14T15:33:10.980Z,17.73
2018-01-14T15:35:37.342Z,17.27
2018-01-14T15:38:04.533Z,16.47
2018-01-14T15:40:31.098Z,17.57
2018-01-14T15:42:58.172Z,16.17
2018-01-14T15:45:24.516Z,17.07
2018-01-14T15:47:51.679Z,16.33
2018-01-14T15:50:18.042Z,16.80
2018-01-14T15:52:44.314Z,16.40
2018-01-14T15:55:10.632Z,17.00
2018-01-14T15:57:36.878Z,17.00
2018-01-14T16:00:03.249Z,16.47
2018-01-14T16:02:35.709Z,17.47
2018-01-14T16:05:02.042Z,16.87
2018-01-14T16:07:28.300Z,17.70
2018-01-14T16:09:54.817Z,16.90
2018-01-14T16:12:21.118Z,18.87
2018-01-14T16:14:49.363Z,19.83
2018-01-14T16:17:16.481Z,18.57
2018-01-14T16:19:42.756Z,18.57
2018-01-14T16:22:09.810Z,18.23
2018-01-14T16:24:36.841Z,18.10
2018-01-14T16:27:03.165Z,17.83
2018-01-14T16:29:29.487Z,19.20
2018-01-14T16:31:55.769Z,19.40
2018-01-14T16:34:22.158Z,18.40
2018-01-14T16:36:48.609Z,19.83
2018-01-14T16:41:49.323Z,19.37
2018-01-14T16:44:15.632Z,20.27
2018-01-14T16:46:41.905Z,19.17
2018-01-14T16:49:08.172Z,19.83
2018-01-14T16:51:34.595Z,19.40
2018-01-14T16:54:01.985Z,21.07
2018-01-14T16:56:28.337Z,19.50
2018-01-14T16:58:54.775Z,19.07
2018-01-14T17:01:21.054Z,18.23
2018-01-14T17:03:47.374Z,20.07
2018-01-14T17:06:13.684Z,19.17
2018-01-14T17:08:40.055Z,18.87
2018-01-14T17:11:06.310Z,20.30
2018-01-14T17:13:33.527Z,19.23
2018-01-14T17:15:59.894Z,20.50
2018-01-14T17:18:26.176Z,19.90
2018-01-14T17:20:52.450Z,20.47
2018-01-14T17:23:19.042Z,19.93
2018-01-14T17:25:45.367Z,20.60
2018-01-14T17:28:12.352Z,19.73
2018-01-14T17:30:38.630Z,19.77
2018-01-14T17:33:05.647Z,21.50
2018-01-14T17:35:31.917Z,19.77
2018-01-14T17:37:58.213Z,21.20
2018-01-14T17:40:25.228Z,20.40
2018-01-14T17:42:51.595Z,20.53
2018-01-14T17:45:18.619Z,20.53
2018-01-14T17:47:51.502Z,20.03
2018-01-14T17:50:17.830Z,21.07
2018-01-14T17:52:47.129Z,21.83
2018-01-14T17:55:13.723Z,20.20
2018-01-14T17:57:41.176Z,19.13
2018-01-14T18:00:07.466Z,20.83
2018-01-14T18:02:34.649Z,20.13
2018-01-14T18:05:00.996Z,21.27
2018-01-14T18:07:29.858Z,20.07
2018-01-14T18:10:01.067Z,20.57
2018-01-14T18:12:30.890Z,20.83
2018-01-14T18:14:57.570Z,20.10
2018-01-14T18:17:35.152Z,20.57
2018-01-14T18:20:03.551Z,19.73
2018-01-14T18:22:37.320Z,20.40
2018-01-14T18:25:06.480Z,19.93
2018-01-14T18:27:35.160Z,19.50
2018-01-14T18:30:01.810Z,18.70
2018-01-14T18:32:30.516Z,21.03
2018-01-14T18:34:56.847Z,21.30
2018-01-14T18:37:26.366Z,20.90
2018-01-14T18:39:52.917Z,21.10
2018-01-14T18:42:19.939Z,19.73
2018-01-14T18:44:46.294Z,20.53
2018-01-14T18:49:46.147Z,21.10
2018-01-14T18:52:12.432Z,20.90
2018-01-14T18:54:38.897Z,21.37
2018-01-14T18:57:05.263Z,20.40
2018-01-14T18:59:33.174Z,21.30
2018-01-14T19:02:00.198Z,20.03
2018-01-14T19:04:26.459Z,20.00
2018-01-14T19:06:53.093Z,18.53
2018-01-14T19:09:20.384Z,20.27
2018-01-14T19:11:49.200Z,20.53
2018-01-14T19:14:15.655Z,19.30
2018-01-14T19:16:42.666Z,21.13
2018-01-14T19:19:08.941Z,20.33
2018-01-14T19:21:35.993Z,19.70
2018-01-14T19:24:03.041Z,20.07
2018-01-14T19:26:29.392Z,22.73
2018-01-14T19:28:55.632Z,20.53
2018-01-14T19:31:21.973Z,20.87
2018-01-14T19:33:48.397Z,20.80
2018-01-14T19:36:15.168Z,21.80
2018-01-14T19:38:41.715Z,20.33
2018-01-14T19:41:07.977Z,20.60
2018-01-14T19:43:34.256Z,19.73
2018-01-14T19:46:00.619Z,20.13
2018-01-14T19:48:27.597Z,19.80
2018-01-14T19:50:53.911Z,21.73
2018-01-14T19:53:20.310Z,19.90
2018-01-14T19:55:47.430Z,21.27
2018-01-14T19:58:13.806Z,21.93
2018-01-14T20:00:41.402Z,19.17
2018-01-14T20:03:07.881Z,20.33
2018-01-14T20:05:35.653Z,20.60
2018-01-14T20:08:03.407Z,21.17
2018-01-14T20:10:29.883Z,21.03
2018-01-14T20:12:56.261Z,21.77
2018-01-14T20:15:22.474Z,20.60
2018-01-14T20:17:48.719Z,20.17
2018-01-14T20:20:15.005Z,20.00
2018-01-14T20:22:43.420Z,20.00
2018-01-14T20:25:09.923Z,20.80
2018-01-14T20:27:36.313Z,20.10
2018-01-14T20:30:03.348Z,20.27
2018-01-14T20:32:31.296Z,20.50
2018-01-14T20:34:57.742Z,20.43
2018-01-14T20:37:24.006Z,20.30
2018-01-14T20:39:51.281Z,19.90
2018-01-14T20:42:21.044Z,19.53
2018-01-14T20:44:53.712Z,20.13
2018-01-14T20:47:20.797Z,20.40
2018-01-14T20:49:47.112Z,20.17
2018-01-14T20:52:14.145Z,18.97
2018-01-14T20:54:41.221Z,19.70
2018-01-14T20:57:07.671Z,20.10
2018-01-14T20:59:34.337Z,20.40
2018-01-14T21:02:00.616Z,19.77
2018-01-14T21:04:29.784Z,19.40
2018-01-14T21:06:57.800Z,19.17
2018-01-14T21:09:28.292Z,21.10
2018-01-14T21:11:56.048Z,20.00
2018-01-14T21:14:22.696Z,20.97
2018-01-14T21:16:50.285Z,19.50
2018-01-14T21:19:16.589Z,19.83
2018-01-14T21:21:43.743Z,20.73
2018-01-14T21:24:11.142Z,20.70
2018-01-14T21:26:37.435Z,20.63
2018-01-14T21:29:03.750Z,19.80
2018-01-14T21:31:29.994Z,19.73
2018-01-14T21:33:56.429Z,20.50
2018-01-14T21:36:22.781Z,20.80
2018-01-14T21:38:49.337Z,20.50
2018-01-14T21:41:16.058Z,19.87
2018-01-14T21:43:42.706Z,21.10
2018-01-14T21:46:09.075Z,20.70
2018-01-14T21:48:35.676Z,20.93
2018-01-14T21:51:01.975Z,19.70
2018-01-14T21:53:28.454Z,21.50
2018-01-14T21:55:54.940Z,21.57
2018-01-14T21:58:21.272Z,22.13
2018-01-14T22:00:47.538Z,21.10
2018-01-14T22:03:13.922Z,21.40
2018-01-14T22:05:40.926Z,20.03
2018-01-14T22:08:07.210Z,21.80
2018-01-14T22:10:33.478Z,22.60
2018-01-14T22:12:59.741Z,19.83
2018-01-14T22:15:27.537Z,22.50
2018-01-14T22:17:53.807Z,21.27
2018-01-14T22:20:20.075Z,21.47
2018-01-14T22:22:46.481Z,22.70
2018-01-14T22:25:18.981Z,20.90
2018-01-14T22:27:46.698Z,22.50
2018-01-14T22:30:13.107Z,21.40
2018-01-14T22:32:39.408Z,23.17
2018-01-14T22:35:05.665Z,22.23
2018-01-14T22:37:32.104Z,24.60
2018-01-14T22:39:58.441Z,22.57
2018-01-14T22:42:44.340Z,22.27
2018-01-14T22:45:17.805Z,22.40
2018-01-14T22:48:00.163Z,22.13
2018-01-14T22:50:27.357Z,21.47
2018-01-14T22:52:53.648Z,23.30
2018-01-14T22:55:19.972Z,23.00
2018-01-14T22:57:46.988Z,22.93
2018-01-14T23:00:13.245Z,22.57
2018-01-14T23:02:40.814Z,23.00
2018-01-14T23:05:07.929Z,21.93
2018-01-14T23:07:34.178Z,22.40
2018-01-14T23:10:00.421Z,21.53
2018-01-14T23:12:26.810Z,22.87
2018-01-14T23:14:59.207Z,23.50
2018-01-14T23:17:26.405Z,21.53
2018-01-14T23:19:52.901Z,22.80
2018-01-14T23:22:20.057Z,22.60
2018-01-14T23:24:47.152Z,23.80
2018-01-14T23:27:13.565Z,22.87
2018-01-14T23:29:39.830Z,24.00
2018-01-14T23:32:06.108Z,23.10
2018-01-14T23:34:33.172Z,21.77
2018-01-14T23:36:59.538Z,21.87
2018-01-14T23:39:26.643Z,23.27
2018-01-14T23:41:53.189Z,23.73
2018-01-14T23:44:19.438Z,22.50
2018-01-14T23:46:45.875Z,22.27
2018-01-14T23:49:12.185Z,23.50
2018-01-14T23:51:38.489Z,24.00
2018-01-14T23:54:05.149Z,25.00
2018-01-14T23:56:32.544Z,23.43
2018-01-14T23:58:59.914Z,22.67
